Terminal Aerodrome Forecast
Issued by NWS

Home | Current Version | Previous Version | Text Only | Print | Product List | Glossary On
Versions: 1 2 3 4 5 6 7 8 9 10 11 12 13 14
000
FTUS43 KEAX 301100
TAFSTJ
TAF
KSTJ 301120Z 3012/3112 21010KT P6SM VCSH BKN100
     FM301500 33015G23KT P6SM SKC
     FM310200 34008KT P6SM BKN040=

USA.gov is the U.S. government's official web portal to all federal, state and local government web resources and services.